Time;durP1;ratioP1;P1;durP2;ratioP2;P2;SDS_P1;SDS_P2;PMS_P1;PMS_P2;Temp;Humidity;BMP_temperature;BMP_pressure;BME280_temperature;BME280_humidity;BME280_pressure;Samples;Min_cycle;Max_cycle;Signal;HPM_P1;HPM_P2
2023/05/26 00:01:08;;;;;;;25.30;6.25;;;;;;;9.76;90.55;102814.97;5031801;28;20392;-71
2023/05/26 00:03:34;;;;;;;33.28;7.15;;;;;;;9.76;91.02;102818.44;5031314;28;20060;-70
2023/05/26 00:06:00;;;;;;;26.10;6.63;;;;;;;9.71;91.03;102824.44;5031275;28;20113;-70
2023/05/26 00:08:25;;;;;;;24.35;5.80;;;;;;;9.77;91.78;102827.13;5031508;28;20031;-70
2023/05/26 00:10:51;;;;;;;25.73;5.75;;;;;;;9.72;91.66;102839.22;5034777;28;20037;-71
2023/05/26 00:13:16;;;;;;;25.77;6.78;;;;;;;9.63;92.43;102828.69;5035351;28;20032;-70
2023/05/26 00:15:42;;;;;;;25.02;6.50;;;;;;;9.68;93.17;102840.03;5034577;28;20068;-71
2023/05/26 00:18:07;;;;;;;19.95;6.13;;;;;;;9.64;92.85;102844.31;5034664;28;20021;-71
2023/05/26 00:20:33;;;;;;;20.30;6.18;;;;;;;9.52;92.86;102842.47;5035042;28;20033;-70
2023/05/26 00:22:58;;;;;;;23.83;6.47;;;;;;;9.52;93.28;102847.66;5035012;28;20029;-70
2023/05/26 00:25:23;;;;;;;22.80;6.50;;;;;;;9.47;93.72;102849.31;5034644;28;20071;-70
2023/05/26 00:27:49;;;;;;;26.05;6.70;;;;;;;9.47;94.44;102849.31;5034453;28;20018;-71
2023/05/26 00:30:15;;;;;;;19.15;5.78;;;;;;;9.41;94.80;102849.22;5035159;28;20032;-70
2023/05/26 00:32:40;;;;;;;27.27;6.40;;;;;;;9.38;95.35;102847.50;5034133;28;20116;-71
2023/05/26 00:35:05;;;;;;;28.20;6.43;;;;;;;9.30;95.21;102856.03;5035081;28;20100;-70
2023/05/26 00:37:32;;;;;;;31.17;6.95;;;;;;;9.29;95.41;102843.88;5035057;28;20035;-70
2023/05/26 00:39:57;;;;;;;28.52;7.03;;;;;;;9.28;96.27;102865.53;5033906;28;20052;-70
2023/05/26 00:42:23;;;;;;;23.52;6.28;;;;;;;9.24;95.70;102856.81;5034509;28;20031;-70
2023/05/26 00:44:51;;;;;;;29.38;6.07;;;;;;;9.26;96.17;102864.66;5034469;28;20032;-70
2023/05/26 00:47:16;;;;;;;29.08;6.22;;;;;;;9.09;96.29;102852.28;5034258;28;20448;-70
2023/05/26 00:49:42;;;;;;;30.52;6.85;;;;;;;9.09;96.82;102867.91;5034220;28;20033;-70
2023/05/26 00:52:07;;;;;;;30.13;6.03;;;;;;;9.10;97.16;102863.56;5034726;28;20066;-70
2023/05/26 00:54:33;;;;;;;27.83;5.97;;;;;;;8.90;97.17;102829.44;5034145;28;20052;-70
2023/05/26 00:56:59;;;;;;;23.73;7.00;;;;;;;9.07;97.86;102863.50;5033889;28;20078;-70
2023/05/26 00:59:25;;;;;;;26.02;6.93;;;;;;;8.97;98.08;102862.50;5034705;28;20025;-70
2023/05/26 01:01:51;;;;;;;26.60;6.50;;;;;;;8.98;98.83;102866.84;5033469;28;20491;-70
2023/05/26 01:04:17;;;;;;;29.98;5.97;;;;;;;8.89;98.20;102856.28;5034378;28;20025;-70
2023/05/26 01:06:44;;;;;;;23.45;6.93;;;;;;;8.77;98.20;102849.19;5033373;28;20536;-71
2023/05/26 01:09:10;;;;;;;25.40;6.45;;;;;;;8.80;99.21;102867.44;5034312;28;20040;-70
2023/05/26 01:11:48;;;;;;;26.90;6.20;;;;;;;8.80;99.51;102862.25;5027592;28;20065;-70
2023/05/26 01:14:26;;;;;;;32.95;6.07;;;;;;;8.73;99.25;102868.19;5032948;28;20029;-71
2023/05/26 01:17:04;;;;;;;26.00;5.63;;;;;;;8.70;100.00;102860.34;5033680;28;20029;-70
2023/05/26 01:20:07;;;;;;;33.75;6.07;;;;;;;8.72;99.87;102869.03;5034201;28;20034;-70
2023/05/26 01:22:50;;;;;;;30.80;6.40;;;;;;;8.71;99.86;102874.22;4976731;28;20057;-70
2023/05/26 01:25:39;;;;;;;24.70;5.95;;;;;;;8.67;100.00;102874.16;5033616;28;20539;-70
2023/05/26 01:28:10;;;;;;;26.40;5.57;;;;;;;8.66;99.93;102869.81;5033195;28;20914;-70
2023/05/26 01:30:36;;;;;;;30.60;6.50;;;;;;;8.63;100.00;102869.75;5033819;28;20385;-70
2023/05/26 01:33:02;;;;;;;30.08;6.20;;;;;;;8.65;100.00;102869.78;5033322;28;20029;-70
2023/05/26 01:35:28;;;;;;;20.42;5.05;;;;;;;8.61;100.00;102867.97;5033273;28;20034;-70
2023/05/26 01:37:54;;;;;;;23.42;5.07;;;;;;;8.58;100.00;102868.78;5033543;28;20088;-70
2023/05/26 01:40:20;;;;;;;31.80;7.25;;;;;;;8.55;100.00;102870.47;5033570;28;20040;-70
2023/05/26 01:42:58;;;;;;;25.23;7.15;;;;;;;8.56;100.00;102870.47;5033064;28;20033;-70
2023/05/26 01:45:26;;;;;;;24.95;5.80;;;;;;;8.54;100.00;102872.19;5033557;28;20107;-70
2023/05/26 01:47:55;;;;;;;26.90;5.70;;;;;;;8.47;100.00;102875.53;5033185;28;20037;-70
2023/05/26 01:50:25;;;;;;;27.00;5.75;;;;;;;8.50;100.00;102866.91;5033311;28;20044;-70
2023/05/26 01:52:52;;;;;;;25.33;5.38;;;;;;;8.46;100.00;102873.78;5030373;28;20087;-70
2023/05/26 01:55:20;;;;;;;26.35;6.18;;;;;;;8.36;100.00;102872.69;5033805;28;20108;-70
2023/05/26 01:57:46;;;;;;;31.23;6.57;;;;;;;8.37;100.00;102878.75;5032427;28;20029;-70
2023/05/26 02:00:12;;;;;;;26.35;6.05;;;;;;;8.23;100.00;102864.66;5033285;28;20029;-70
2023/05/26 02:02:37;;;;;;;22.95;5.18;;;;;;;8.30;100.00;102877.78;5033328;28;20116;-70
2023/05/26 02:05:03;;;;;;;32.20;5.38;;;;;;;8.30;100.00;102882.09;5032523;28;20113;-70
2023/05/26 02:07:29;;;;;;;30.17;5.72;;;;;;;8.22;100.00;102876.78;5033270;28;20037;-70
2023/05/26 02:09:55;;;;;;;27.92;5.90;;;;;;;8.20;100.00;102886.25;5032781;28;20052;-70
2023/05/26 02:12:20;;;;;;;31.30;5.57;;;;;;;8.18;100.00;102883.66;5032668;28;20537;-70
2023/05/26 02:14:45;;;;;;;29.52;6.38;;;;;;;8.13;100.00;102880.06;5032387;28;20103;-71
2023/05/26 02:17:11;;;;;;;26.98;6.40;;;;;;;8.14;100.00;102889.63;5032685;28;20025;-71
2023/05/26 02:19:36;;;;;;;29.83;6.75;;;;;;;8.11;100.00;102878.28;5032851;28;20026;-70
2023/05/26 02:22:01;;;;;;;34.60;6.13;;;;;;;8.12;100.00;102882.66;5032369;28;20021;-70
2023/05/26 02:24:27;;;;;;;35.00;5.55;;;;;;;8.07;100.00;102895.53;5032695;28;20049;-70
2023/05/26 02:26:52;;;;;;;26.95;6.03;;;;;;;8.05;100.00;102888.56;5032527;28;20053;-70
2023/05/26 02:29:17;;;;;;;29.30;5.40;;;;;;;7.98;100.00;102887.59;5032659;28;20074;-70
2023/05/26 02:31:43;;;;;;;22.13;5.40;;;;;;;7.96;100.00;102889.25;5031758;28;20030;-70
2023/05/26 02:34:10;;;;;;;28.75;5.88;;;;;;;7.91;100.00;102893.47;5032594;28;20049;-70
2023/05/26 02:36:36;;;;;;;26.88;6.82;;;;;;;7.91;100.00;102883.09;5033016;28;20099;-70
2023/05/26 02:39:01;;;;;;;19.38;5.80;;;;;;;7.89;100.00;102896.06;5032106;28;20455;-70
2023/05/26 02:41:27;;;;;;;28.40;6.55;;;;;;;7.84;100.00;102887.28;5032545;28;20032;-70
2023/05/26 02:43:52;;;;;;;27.10;5.47;;;;;;;7.84;100.00;102894.19;5032179;28;20064;-70
2023/05/26 02:46:17;;;;;;;28.35;6.20;;;;;;;7.82;100.00;102882.94;5032201;28;20025;-70
2023/05/26 02:48:43;;;;;;;29.23;5.78;;;;;;;7.77;100.00;102879.34;5031670;28;20416;-71
2023/05/26 02:51:08;;;;;;;27.75;5.78;;;;;;;7.73;100.00;102870.63;5032724;28;20071;-70
2023/05/26 02:53:33;;;;;;;27.83;5.22;;;;;;;7.69;100.00;102880.06;5032037;28;20026;-70
2023/05/26 02:55:59;;;;;;;25.92;5.68;;;;;;;7.69;100.00;102874.88;5031902;28;20026;-70
2023/05/26 02:58:24;;;;;;;35.35;5.90;;;;;;;7.65;100.00;102880.84;5032632;28;20021;-70
2023/05/26 03:00:50;;;;;;;28.67;5.82;;;;;;;7.60;100.00;102881.59;5031408;28;20381;-70
2023/05/26 03:03:16;;;;;;;27.63;6.18;;;;;;;7.60;100.00;102899.75;5032422;28;20074;-70
2023/05/26 03:05:41;;;;;;;29.70;5.30;;;;;;;7.50;100.00;102875.31;5032143;28;20034;-70
2023/05/26 03:08:07;;;;;;;28.77;5.10;;;;;;;7.55;100.00;102888.38;5031575;28;20029;-70
2023/05/26 03:10:33;;;;;;;22.77;5.40;;;;;;;7.48;100.00;102884.78;5032022;28;20025;-70
2023/05/26 03:12:58;;;;;;;33.47;5.75;;;;;;;7.54;100.00;102889.25;5031636;28;20030;-70
2023/05/26 03:15:24;;;;;;;25.25;6.28;;;;;;;7.49;100.00;102891.75;5031383;28;20108;-70
2023/05/26 03:17:50;;;;;;;26.67;5.40;;;;;;;7.43;100.00;102882.09;5031511;28;20029;-70
2023/05/26 03:20:16;;;;;;;29.52;6.10;;;;;;;7.50;100.00;102890.91;5029906;28;20439;-70
2023/05/26 03:22:41;;;;;;;27.63;5.35;;;;;;;7.41;100.00;102891.56;5031580;28;20033;-70
2023/05/26 03:25:06;;;;;;;27.90;6.45;;;;;;;7.38;100.00;102895.81;5031616;28;20033;-70
2023/05/26 03:27:32;;;;;;;31.17;5.65;;;;;;;7.36;100.00;102898.38;5031615;28;20025;-70
2023/05/26 03:29:57;;;;;;;33.88;6.82;;;;;;;7.33;100.00;102903.50;5031852;28;20120;-70
2023/05/26 03:32:22;;;;;;;23.88;5.82;;;;;;;7.33;100.00;102906.09;5031892;28;20045;-70
2023/05/26 03:34:48;;;;;;;30.42;6.38;;;;;;;7.28;100.00;102894.72;5031322;28;20392;-70
2023/05/26 03:37:13;;;;;;;32.40;5.45;;;;;;;7.32;100.00;102911.22;5031566;28;20466;-70
2023/05/26 03:39:38;;;;;;;32.78;7.07;;;;;;;7.28;100.00;102900.78;5031803;28;20083;-70
2023/05/26 03:42:05;;;;;;;25.83;5.75;;;;;;;7.24;100.00;102914.53;5031245;28;20175;-70
2023/05/26 03:44:31;;;;;;;29.75;6.25;;;;;;;7.20;100.00;102911.84;5033987;28;20071;-70
2023/05/26 03:46:56;;;;;;;25.48;5.90;;;;;;;7.23;100.00;102924.88;5035604;28;20428;-70
2023/05/26 03:49:21;;;;;;;29.52;5.22;;;;;;;7.23;100.00;102917.97;5035365;28;20037;-70
2023/05/26 03:51:46;;;;;;;25.15;5.78;;;;;;;7.21;100.00;102923.97;5035268;28;20152;-70
2023/05/26 03:54:12;;;;;;;28.65;5.80;;;;;;;7.20;100.00;102914.44;5035910;28;20033;-70
2023/05/26 03:56:37;;;;;;;25.20;5.43;;;;;;;7.22;100.00;102925.69;5035215;28;20057;-70
2023/05/26 03:59:03;;;;;;;28.10;6.30;;;;;;;7.23;100.00;102923.16;5035535;28;20489;-70
2023/05/26 04:01:28;;;;;;;25.60;6.07;;;;;;;7.25;100.00;102918.88;5035794;28;20029;-70
2023/05/26 04:03:54;;;;;;;24.00;5.78;;;;;;;7.28;100.00;102921.53;5034818;28;20029;-70
2023/05/26 04:06:19;;;;;;;32.45;6.88;;;;;;;7.30;100.00;102919.00;5035425;28;20025;-70
2023/05/26 04:08:47;;;;;;;33.03;5.60;;;;;;;7.27;100.00;102913.72;5035084;28;20025;-70
2023/05/26 04:11:13;;;;;;;22.80;5.18;;;;;;;7.29;100.00;102917.22;5034756;28;20018;-70
2023/05/26 04:13:38;;;;;;;32.50;7.50;;;;;;;7.30;100.00;102919.00;5035063;28;20037;-71
2023/05/26 04:16:04;;;;;;;31.00;5.20;;;;;;;7.32;100.00;102921.59;5034502;28;20381;-70
2023/05/26 04:18:29;;;;;;;26.80;5.93;;;;;;;7.21;100.00;102898.88;5034901;28;20025;-70
2023/05/26 04:20:55;;;;;;;23.48;5.75;;;;;;;7.42;100.00;102920.97;5034635;28;20034;-70
2023/05/26 04:23:20;;;;;;;25.95;5.55;;;;;;;7.45;100.00;102926.22;5035229;28;20032;-70
2023/05/26 04:25:45;;;;;;;29.40;5.65;;;;;;;7.43;100.00;102917.56;5034298;28;20032;-70
2023/05/26 04:28:11;;;;;;;26.40;6.43;;;;;;;7.50;100.00;102927.22;5034991;28;20465;-70
2023/05/26 04:30:39;;;;;;;34.47;6.05;;;;;;;7.37;100.00;102904.44;5034812;28;20431;-70
2023/05/26 04:33:05;;;;;;;21.65;6.60;;;;;;;7.57;100.00;102928.25;5035422;28;20061;-70
2023/05/26 04:35:31;;;;;;;31.48;5.68;;;;;;;7.56;100.00;102919.59;5032695;28;20029;-70
2023/05/26 04:37:56;;;;;;;23.80;5.88;;;;;;;7.62;100.00;102926.59;5034166;28;20036;-70
2023/05/26 04:40:21;;;;;;;36.63;6.65;;;;;;;7.66;100.00;102926.72;5034329;28;20056;-70
2023/05/26 04:42:48;;;;;;;25.52;5.22;;;;;;;7.67;100.00;102930.19;5034830;28;20061;-70
2023/05/26 04:45:14;;;;;;;27.02;5.88;;;;;;;7.71;100.00;102932.88;5034656;28;20026;-70
2023/05/26 04:47:40;;;;;;;32.20;7.18;;;;;;;7.74;100.00;102935.53;5034034;28;20060;-70
2023/05/26 04:50:06;;;;;;;35.55;6.63;;;;;;;7.74;100.00;102935.53;5034749;28;20382;-70
2023/05/26 04:52:32;;;;;;;35.20;7.13;;;;;;;7.77;100.00;102941.66;5034177;28;20091;-70
2023/05/26 04:54:57;;;;;;;24.77;6.35;;;;;;;7.79;100.00;102934.78;5033656;28;20064;-70
2023/05/26 04:57:22;;;;;;;29.52;7.30;;;;;;;7.84;100.00;102940.94;5034370;28;20051;-70
2023/05/26 04:59:48;;;;;;;31.10;7.13;;;;;;;7.86;100.00;102953.13;5033773;28;20063;-70
2023/05/26 05:02:13;;;;;;;30.13;6.88;;;;;;;7.88;100.00;102946.25;5034511;28;20025;-70
2023/05/26 05:04:42;;;;;;;33.20;6.47;;;;;;;7.90;100.00;102943.66;5034049;28;20026;-70
2023/05/26 05:07:08;;;;;;;28.70;6.43;;;;;;;7.98;100.00;102958.59;5033941;28;20026;-70
2023/05/26 05:09:33;;;;;;;29.15;6.45;;;;;;;7.95;100.00;102942.06;5033919;28;20037;-70
2023/05/26 05:11:58;;;;;;;24.80;6.60;;;;;;;8.05;100.00;102951.78;5034196;28;20037;-70
2023/05/26 05:14:24;;;;;;;29.90;6.53;;;;;;;8.07;100.00;102947.50;5033663;28;20469;-70
2023/05/26 05:16:49;;;;;;;32.00;6.45;;;;;;;8.10;100.00;102942.34;5033863;28;20026;-70
2023/05/26 05:19:15;;;;;;;32.92;6.50;;;;;;;8.14;100.00;102949.41;5034020;28;20469;-70
2023/05/26 05:21:40;;;;;;;27.48;6.53;;;;;;;8.20;100.00;102949.47;5033212;28;20048;-70
2023/05/26 05:24:06;;;;;;;26.27;6.03;;;;;;;8.24;100.00;102944.34;5033718;28;20470;-70
2023/05/26 05:26:31;;;;;;;23.52;6.18;;;;;;;8.32;100.00;102954.06;5034004;28;20033;-70
2023/05/26 05:28:56;;;;;;;32.22;7.75;;;;;;;8.38;100.00;102954.22;5033203;28;20033;-70
2023/05/26 05:31:22;;;;;;;35.85;7.60;;;;;;;8.42;100.00;102950.81;5033663;28;20025;-70
2023/05/26 05:33:47;;;;;;;32.33;6.57;;;;;;;8.53;100.00;102957.94;5033708;28;20021;-70
2023/05/26 05:36:15;;;;;;;29.92;5.85;;;;;;;8.56;100.00;102952.81;5033276;28;20040;-70
2023/05/26 05:38:40;;;;;;;31.13;6.20;;;;;;;8.70;100.00;102960.84;5033497;28;20044;-70
2023/05/26 05:41:06;;;;;;;31.58;6.32;;;;;;;8.75;100.00;102965.28;5033052;28;20038;-70
2023/05/26 05:43:32;;;;;;;31.08;7.22;;;;;;;8.83;100.00;102957.66;5033759;28;20037;-70
2023/05/26 05:45:58;;;;;;;30.98;6.43;;;;;;;8.90;100.00;102959.50;5033585;28;20025;-70
2023/05/26 05:48:23;;;;;;;25.75;7.07;;;;;;;8.93;100.00;102963.84;5032757;28;20033;-70
2023/05/26 05:50:48;;;;;;;28.83;6.45;;;;;;;8.96;100.00;102966.50;5032989;28;20025;-70
2023/05/26 05:53:13;;;;;;;25.05;6.10;;;;;;;8.96;99.92;102961.31;5033763;28;20021;-70
2023/05/26 05:55:39;;;;;;;27.15;5.90;;;;;;;9.06;99.55;102973.66;5032326;28;20132;-70
2023/05/26 05:58:04;;;;;;;31.33;6.75;;;;;;;9.11;99.82;102971.97;5033553;28;20021;-70
2023/05/26 06:00:29;;;;;;;24.55;6.28;;;;;;;9.19;99.30;102965.19;5033570;28;20376;-70
2023/05/26 06:02:55;;;;;;;26.35;5.95;;;;;;;9.24;99.81;102966.13;5032456;28;20561;-70
2023/05/26 06:05:20;;;;;;;30.95;6.60;;;;;;;9.34;98.34;102973.22;5033364;28;20026;-70
2023/05/26 06:07:46;;;;;;;28.38;7.13;;;;;;;9.41;97.40;102978.53;5032115;28;20021;-70
2023/05/26 06:10:11;;;;;;;25.25;6.40;;;;;;;9.46;96.26;102987.31;5032590;28;20550;-70
2023/05/26 06:12:36;;;;;;;33.08;6.38;;;;;;;9.36;96.07;102960.25;5033116;28;20108;-70
2023/05/26 06:15:02;;;;;;;28.05;7.03;;;;;;;9.61;95.58;102992.72;5032570;28;20550;-70
2023/05/26 06:17:27;;;;;;;27.85;6.22;;;;;;;9.65;94.20;102994.53;5032636;28;20056;-70
2023/05/26 06:19:52;;;;;;;31.75;6.82;;;;;;;9.65;94.40;102993.66;5032366;28;20021;-70
2023/05/26 06:22:18;;;;;;;30.27;5.95;;;;;;;9.69;94.75;102993.72;5033269;28;20468;-70
2023/05/26 06:24:43;;;;;;;29.88;6.30;;;;;;;9.74;94.88;102993.78;5032045;28;20029;-70
2023/05/26 06:27:09;;;;;;;29.13;5.68;;;;;;;9.87;94.90;102994.81;5032577;28;20026;-70
2023/05/26 06:29:34;;;;;;;30.48;6.78;;;;;;;10.01;94.56;102991.56;5032895;28;20125;-70
2023/05/26 06:32:00;;;;;;;30.15;6.35;;;;;;;10.17;94.12;102983.91;5032012;28;20116;-70
2023/05/26 06:34:25;;;;;;;35.95;6.28;;;;;;;10.34;91.63;102995.47;5032379;28;20030;-70
2023/05/26 06:36:51;;;;;;;28.80;6.30;;;;;;;10.38;91.55;102988.56;5032366;28;20061;-70
2023/05/26 06:39:16;;;;;;;29.67;5.87;;;;;;;10.37;89.81;102981.63;5032101;28;20021;-70
2023/05/26 06:41:41;;;;;;;29.33;6.68;;;;;;;10.42;90.60;102990.34;5032057;28;20469;-71
2023/05/26 06:44:07;;;;;;;25.73;5.55;;;;;;;10.43;89.61;102987.78;5032787;28;20033;-70
2023/05/26 06:46:32;;;;;;;26.80;6.05;;;;;;;10.45;90.21;102983.44;5031830;28;20026;-70
2023/05/26 06:48:58;;;;;;;29.15;6.32;;;;;;;10.42;88.48;102990.34;5031936;28;20045;-70
2023/05/26 06:51:23;;;;;;;24.60;6.25;;;;;;;10.30;88.02;102999.78;5032231;28;20030;-70
2023/05/26 06:53:48;;;;;;;29.13;6.30;;;;;;;10.31;89.59;102998.91;5032092;28;20026;-70
2023/05/26 06:56:13;;;;;;;31.15;5.80;;;;;;;10.26;90.03;102990.16;5027574;28;20030;-70
2023/05/26 06:58:39;;;;;;;26.73;5.78;;;;;;;10.37;89.27;102997.25;5031439;28;20033;-70
2023/05/26 07:01:05;;;;;;;31.05;5.88;;;;;;;10.41;88.19;102986.88;5032511;28;20026;-70
2023/05/26 07:03:31;;;;;;;25.58;6.22;;;;;;;10.42;87.66;102995.56;5032328;28;20466;-70
2023/05/26 07:05:57;;;;;;;29.23;6.25;;;;;;;10.47;86.68;102993.91;5031528;28;20065;-70
2023/05/26 07:08:23;;;;;;;31.50;6.72;;;;;;;10.56;87.00;103004.41;5032208;28;20426;-70
2023/05/26 07:10:49;;;;;;;34.05;6.25;;;;;;;10.70;86.38;102999.38;5032103;28;20037;-70
2023/05/26 07:13:15;;;;;;;34.30;6.30;;;;;;;10.83;85.92;102985.56;5024361;28;20120;-70
2023/05/26 07:15:41;;;;;;;21.92;5.95;;;;;;;10.98;85.37;102987.44;5031595;28;20043;-70
2023/05/26 07:18:07;;;;;;;26.33;6.70;;;;;;;11.21;86.92;102978.06;5031674;28;20381;-71
2023/05/26 07:20:32;;;;;;;32.40;6.35;;;;;;;11.44;86.84;102982.59;5031792;28;20038;-70
2023/05/26 07:22:57;;;;;;;27.10;6.78;;;;;;;11.60;84.05;102988.78;5031495;28;20108;-70
2023/05/26 07:25:22;;;;;;;33.22;6.22;;;;;;;11.65;81.88;102987.09;5032185;28;20045;-70
2023/05/26 07:27:48;;;;;;;29.17;6.22;;;;;;;11.76;82.21;102988.03;5031578;28;20041;-70
2023/05/26 07:30:13;;;;;;;22.20;6.10;;;;;;;11.86;82.02;102992.47;5031821;28;20113;-70
2023/05/26 07:32:38;;;;;;;25.80;6.00;;;;;;;12.00;81.90;102995.19;5031691;28;20389;-70
2023/05/26 07:35:04;;;;;;;28.45;6.07;;;;;;;12.01;80.07;102990.81;5031556;28;20041;-70
2023/05/26 07:37:30;;;;;;;25.67;6.05;;;;;;;12.00;78.96;102986.44;5031518;28;20030;-70
2023/05/26 07:39:56;;;;;;;27.15;6.47;;;;;;;11.94;77.04;102985.56;5031825;28;20037;-70
2023/05/26 07:42:21;;;;;;;25.52;6.60;;;;;;;11.86;78.88;102987.25;5031415;28;20018;-70
2023/05/26 07:44:47;;;;;;;27.40;6.57;;;;;;;11.93;78.34;102986.44;5031527;28;20029;-70
2023/05/26 07:47:12;;;;;;;24.50;5.35;;;;;;;12.00;78.40;102986.44;5031817;28;20473;-70
2023/05/26 07:49:37;;;;;;;22.92;5.68;;;;;;;12.03;75.56;102978.59;5030748;28;20053;-71
2023/05/26 07:52:03;;;;;;;26.73;6.72;;;;;;;12.09;76.65;102997.81;5031809;28;20029;-70
2023/05/26 07:54:28;;;;;;;28.85;5.90;;;;;;;12.12;74.76;102996.97;5031890;28;20116;-70
2023/05/26 07:56:53;;;;;;;22.25;6.15;;;;;;;12.19;76.50;102991.75;5030755;28;20053;-71
2023/05/26 07:59:19;;;;;;;25.02;5.88;;;;;;;12.23;75.45;102991.75;5031712;28;20075;-70
2023/05/26 08:01:44;;;;;;;25.88;6.05;;;;;;;12.14;74.34;102984.78;5030925;28;20038;-70
2023/05/26 08:04:09;;;;;;;21.60;5.85;;;;;;;12.18;74.94;102994.38;5031378;28;20152;-70
2023/05/26 08:06:35;;;;;;;27.23;7.03;;;;;;;12.21;74.57;103004.84;5032014;28;20117;-70
2023/05/26 08:09:01;;;;;;;26.33;5.75;;;;;;;12.26;73.56;103000.53;5031049;28;20025;-70
2023/05/26 08:11:26;;;;;;;25.88;6.45;;;;;;;12.31;73.82;103001.41;5031564;28;20025;-70
2023/05/26 08:13:51;;;;;;;21.15;5.55;;;;;;;12.37;71.76;103000.56;5031580;28;20033;-70
2023/05/26 08:16:17;;;;;;;25.80;6.20;;;;;;;12.38;73.17;102989.22;5030826;28;20025;-71
2023/05/26 08:18:42;;;;;;;23.38;5.68;;;;;;;12.51;74.59;102988.38;5031289;28;20040;-70
2023/05/26 08:21:07;;;;;;;22.58;5.93;;;;;;;12.54;70.41;102980.53;5031418;28;20496;-70
2023/05/26 08:23:33;;;;;;;25.63;6.03;;;;;;;12.68;71.18;102988.41;5031095;28;20026;-70
2023/05/26 08:25:58;;;;;;;21.67;5.70;;;;;;;12.72;69.34;102990.19;5031264;28;20033;-70
2023/05/26 08:28:23;;;;;;;24.48;5.70;;;;;;;12.91;69.92;102980.59;5031611;28;20543;-70
2023/05/26 08:30:49;;;;;;;23.40;5.72;;;;;;;13.04;69.69;102984.09;5032904;28;20492;-71
2023/05/26 08:33:14;;;;;;;19.63;5.25;;;;;;;13.17;69.22;102993.69;5034865;28;20112;-70
2023/05/26 08:35:39;;;;;;;27.67;5.95;;;;;;;13.20;69.17;102983.22;5034568;28;20440;-70
2023/05/26 08:38:05;;;;;;;18.63;5.18;;;;;;;13.29;68.52;102990.25;5034413;28;20034;-71
2023/05/26 08:40:30;;;;;;;20.42;5.55;;;;;;;13.41;70.33;102981.50;5034379;28;20037;-70
2023/05/26 08:42:58;;;;;;;26.27;5.93;;;;;;;13.50;67.02;102987.59;5034679;28;20036;-70
2023/05/26 08:45:24;;;;;;;29.77;5.82;;;;;;;13.44;66.14;102958.78;5034328;28;20099;-71
2023/05/26 08:47:51;;;;;;;26.27;6.25;;;;;;;13.59;65.04;102981.47;5034044;28;20481;-70
2023/05/26 08:50:18;;;;;;;22.42;5.55;;;;;;;13.70;66.12;102981.44;5034675;28;20112;-71
2023/05/26 08:52:43;;;;;;;25.17;5.82;;;;;;;13.76;64.87;102989.28;5033609;28;20156;-71
2023/05/26 08:55:09;;;;;;;19.45;5.68;;;;;;;13.72;63.48;102974.44;5034634;28;20120;-70
2023/05/26 08:57:35;;;;;;;20.50;5.85;;;;;;;13.80;61.95;102975.31;5034408;28;20022;-71
2023/05/26 09:00:03;;;;;;;20.23;5.35;;;;;;;13.79;61.44;102987.53;5033426;28;20021;-70
2023/05/26 09:02:29;;;;;;;22.35;4.97;;;;;;;13.79;61.66;102984.03;5034458;28;20060;-71
2023/05/26 09:04:54;;;;;;;19.92;5.50;;;;;;;13.90;62.48;102979.66;5034150;28;20112;-71
2023/05/26 09:07:19;;;;;;;21.05;4.80;;;;;;;14.02;61.77;102978.72;5033692;28;20526;-70
2023/05/26 09:09:45;;;;;;;24.08;5.30;;;;;;;14.01;61.07;102982.22;5034012;28;20060;-71
2023/05/26 09:12:11;;;;;;;21.50;7.10;;;;;;;14.09;62.20;102990.06;5033864;28;20074;-70
2023/05/26 09:14:38;;;;;;;23.52;5.63;;;;;;;14.22;60.63;102984.78;5034084;28;20096;-70
2023/05/26 09:17:04;;;;;;;19.73;4.97;;;;;;;14.43;60.38;102982.91;5034308;28;20067;-70
2023/05/26 09:19:33;;;;;;;22.95;5.50;;;;;;;14.40;62.60;102938.31;5033809;28;20033;-71
2023/05/26 09:22:08;;;;;;;19.35;5.95;;;;;;;14.84;59.58;102987.03;5033663;28;20035;-70
2023/05/26 09:24:45;;;;;;;22.48;5.72;;;;;;;14.87;55.82;102987.91;5034427;28;20029;-70
2023/05/26 09:27:21;;;;;;;18.75;5.38;;;;;;;14.85;56.30;102983.56;5033296;28;20087;-71
2023/05/26 09:30:00;;;;;;;19.40;5.28;;;;;;;14.99;56.44;102982.56;5033579;28;20038;-71
2023/05/26 09:32:29;;;;;;;20.23;5.57;;;;;;;15.08;57.92;102976.38;5033788;28;20041;-70
2023/05/26 09:35:00;;;;;;;17.25;5.28;;;;;;;15.19;55.84;102974.50;5032839;28;20030;-70
2023/05/26 09:37:29;;;;;;;19.80;5.28;;;;;;;15.35;54.20;102990.16;5033839;28;20040;-70
2023/05/26 09:40:05;;;;;;;18.73;4.75;;;;;;;15.34;52.35;102985.78;5033479;28;20056;-70
2023/05/26 09:42:31;;;;;;;16.33;5.07;;;;;;;15.45;53.83;102989.16;5032275;28;20033;-71
2023/05/26 09:44:56;;;;;;;19.50;4.82;;;;;;;15.63;55.24;102985.47;5033809;28;20603;-70
2023/05/26 09:47:21;;;;;;;24.85;6.10;;;;;;;15.79;54.71;102984.44;5032831;28;20045;-71
2023/05/26 09:49:47;;;;;;;19.92;5.65;;;;;;;15.94;58.18;102978.16;5033323;28;20037;-71
2023/05/26 09:52:13;;;;;;;23.73;5.43;;;;;;;16.01;53.17;102981.56;5033572;28;20124;-71
2023/05/26 09:54:39;;;;;;;19.90;5.53;;;;;;;16.12;50.91;102977.94;5032648;28;20104;-71
2023/05/26 09:57:10;;;;;;;23.00;5.90;;;;;;;16.19;52.19;102981.34;5033536;28;20025;-70
2023/05/26 09:59:38;;;;;;;22.58;5.25;;;;;;;16.20;50.91;102985.72;5033415;28;20025;-70
2023/05/26 10:02:19;;;;;;;19.95;5.28;;;;;;;16.30;51.61;102970.69;5033027;28;20021;-70
2023/05/26 10:04:46;;;;;;;19.42;5.35;;;;;;;16.32;48.63;102971.53;5031062;28;20156;-71
2023/05/26 10:07:12;;;;;;;14.70;5.20;;;;;;;16.39;50.37;102978.47;5033246;28;20037;-70
2023/05/26 10:09:38;;;;;;;16.50;5.15;;;;;;;16.30;47.97;102962.78;5032284;28;20041;-71
2023/05/26 10:12:07;;;;;;;16.52;5.43;;;;;;;16.39;47.42;102967.94;5032864;28;20494;-71
2023/05/26 10:14:35;;;;;;;24.35;5.53;;;;;;;16.49;47.11;102968.66;5033099;28;20022;-71
2023/05/26 10:17:02;;;;;;;23.00;5.43;;;;;;;16.53;47.60;102971.22;5032226;28;20393;-71
2023/05/26 10:19:28;;;;;;;17.45;5.03;;;;;;;16.61;48.71;102966.72;5032948;28;20076;-71
2023/05/26 10:21:57;;;;;;;16.65;4.97;;;;;;;16.74;46.90;102970.03;5032476;28;20049;-71
2023/05/26 10:24:31;;;;;;;15.52;4.47;;;;;;;16.78;46.55;102970.91;5032190;28;20080;-71
2023/05/26 10:27:05;;;;;;;15.68;4.68;;;;;;;16.84;46.89;102971.66;5032568;28;20033;-71
2023/05/26 10:29:47;;;;;;;18.85;5.47;;;;;;;16.85;47.11;102959.38;5025411;28;20473;-71
2023/05/26 10:32:46;;;;;;;17.23;5.10;;;;;;;17.00;46.41;102956.50;5032441;28;20021;-70
2023/05/26 10:35:24;;;;;;;23.05;5.72;;;;;;;17.08;46.95;102957.22;5032862;28;20053;-71
2023/05/26 10:38:11;;;;;;;20.10;5.28;;;;;;;17.14;45.70;102953.59;5031942;28;20477;-71
2023/05/26 10:40:49;;;;;;;16.23;5.10;;;;;;;17.01;45.13;102955.59;5030052;28;20527;-71
2023/05/26 10:43:27;;;;;;;15.57;5.20;;;;;;;17.02;46.00;102965.22;5032860;28;20032;-70
2023/05/26 10:45:57;;;;;;;19.05;5.00;;;;;;;17.23;45.62;102957.81;5032233;28;20219;-70
2023/05/26 10:48:40;;;;;;;17.15;6.03;;;;;;;17.50;45.62;102959.97;5032392;28;20041;-71
2023/05/26 10:51:06;;;;;;;17.27;6.00;;;;;;;17.51;45.37;102952.94;5032108;28;20052;-71
2023/05/26 10:53:45;;;;;;;18.65;5.63;;;;;;;17.60;45.61;102951.91;5032036;28;20767;-71
2023/05/26 10:56:13;;;;;;;18.67;5.45;;;;;;;17.71;46.14;102945.50;5032490;28;20112;-70
2023/05/26 10:58:46;;;;;;;23.15;6.10;;;;;;;17.84;46.14;102935.59;5031509;28;20496;-71
2023/05/26 11:01:16;;;;;;;17.52;6.22;;;;;;;18.06;43.49;102949.22;5032108;28;20056;-70
2023/05/26 11:03:45;;;;;;;13.43;5.28;;;;;;;18.24;43.69;102946.16;5031881;28;20544;-71
2023/05/26 11:06:16;;;;;;;15.63;5.47;;;;;;;18.37;42.26;102936.19;5031658;28;20083;-71
2023/05/26 11:08:46;;;;;;;17.60;5.45;;;;;;;18.51;43.24;102935.00;5032294;28;20025;-71
2023/05/26 11:11:14;;;;;;;19.40;5.38;;;;;;;18.70;42.47;102934.53;5032100;28;20534;-71
2023/05/26 11:13:49;;;;;;;17.73;5.00;;;;;;;18.78;41.78;102929.09;5031326;28;20052;-70
2023/05/26 11:16:24;;;;;;;16.85;4.90;;;;;;;18.69;41.89;102937.22;5028614;28;20463;-71
2023/05/26 11:18:54;;;;;;;14.23;4.97;;;;;;;18.61;43.21;102931.25;5031519;28;20034;-70